Time;durP1;ratioP1;P1;durP2;ratioP2;P2;SDS_P1;SDS_P2;PMS_P1;PMS_P2;Temp;Humidity;BMP_temperature;BMP_pressure;BME280_temperature;BME280_humidity;BME280_pressure;Samples;Min_cycle;Max_cycle;Signal;HPM_P1;HPM_P2
2023/09/28 00:01:40;;;;;;;11.77;5.97;;;;;;;8.91;100.00;94172.19;5031505;28;20056;-58
2023/09/28 00:04:06;;;;;;;9.80;5.85;;;;;;;8.84;100.00;94172.25;5030942;28;20047;-58
2023/09/28 00:06:34;;;;;;;10.60;5.68;;;;;;;8.82;100.00;94171.09;5031210;28;20115;-58
2023/09/28 00:09:01;;;;;;;11.48;6.65;;;;;;;8.89;100.00;94176.50;5030295;28;20390;-58
2023/09/28 00:11:27;;;;;;;12.15;6.80;;;;;;;8.92;100.00;94175.72;5031416;28;20064;-58
2023/09/28 00:13:54;;;;;;;11.67;6.70;;;;;;;8.91;100.00;94174.94;5028175;28;20038;-57
2023/09/28 00:16:21;;;;;;;10.27;6.25;;;;;;;8.94;100.00;94176.88;5029590;28;20068;-58
2023/09/28 00:18:48;;;;;;;10.77;6.40;;;;;;;8.65;100.00;94184.41;5030140;28;20103;-57
2023/09/28 00:21:15;;;;;;;11.18;6.53;;;;;;;8.37;100.00;94186.06;5031765;28;20044;-59
2023/09/28 00:23:42;;;;;;;11.35;6.60;;;;;;;8.46;100.00;94190.38;5030089;28;20044;-59
2023/09/28 00:26:08;;;;;;;10.47;6.27;;;;;;;8.63;100.00;94186.00;5029787;28;20037;-59
2023/09/28 00:28:35;;;;;;;11.00;6.30;;;;;;;8.73;100.00;94187.91;5029756;28;20122;-59
2023/09/28 00:31:05;;;;;;;11.50;7.07;;;;;;;8.76;100.00;94187.91;5029785;28;20038;-59
2023/09/28 00:33:31;;;;;;;10.63;6.00;;;;;;;8.69;100.00;94184.41;5028507;28;20051;-59
2023/09/28 00:35:58;;;;;;;10.43;6.18;;;;;;;8.53;100.00;94177.44;5029768;28;20048;-59
2023/09/28 00:38:25;;;;;;;19.77;10.73;;;;;;;8.55;100.00;94185.25;5029717;28;20406;-59
2023/09/28 00:40:52;;;;;;;16.60;9.60;;;;;;;8.61;100.00;94180.91;5029761;28;20076;-59
2023/09/28 00:43:26;;;;;;;11.68;6.82;;;;;;;8.59;100.00;94181.34;5029895;28;20499;-59
2023/09/28 00:45:52;;;;;;;10.68;6.20;;;;;;;8.67;100.00;94179.38;5029695;28;20037;-59
2023/09/28 00:48:20;;;;;;;10.70;6.40;;;;;;;8.72;100.00;94173.47;5029401;28;20513;-59
2023/09/28 00:50:47;;;;;;;12.23;6.83;;;;;;;8.73;100.00;94172.31;5029254;28;20049;-58
2023/09/28 00:53:20;;;;;;;11.18;6.43;;;;;;;8.79;100.00;94183.59;5029837;28;20052;-59
2023/09/28 00:55:48;;;;;;;11.52;6.35;;;;;;;8.83;100.00;94183.59;5029058;28;20041;-58
2023/09/28 00:58:15;;;;;;;10.77;6.00;;;;;;;8.85;100.00;94183.97;5029581;28;20083;-59
2023/09/28 01:00:42;;;;;;;9.95;6.18;;;;;;;8.87;100.00;94187.09;5029220;28;20055;-59
2023/09/28 01:03:11;;;;;;;11.50;6.20;;;;;;;8.77;100.00;94186.75;5029140;28;20051;-59
2023/09/28 01:05:39;;;;;;;11.48;6.18;;;;;;;8.69;100.00;94190.69;5029059;28;20053;-59
2023/09/28 01:08:12;;;;;;;12.15;7.03;;;;;;;8.68;100.00;94185.59;5029396;28;20037;-59
2023/09/28 01:10:43;;;;;;;40.50;20.25;;;;;;;8.72;100.00;94194.59;5029403;28;20083;-59
2023/09/28 01:13:12;;;;;;;16.25;9.00;;;;;;;8.74;100.00;94184.03;5028874;28;20037;-58
2023/09/28 01:15:40;;;;;;;12.23;7.10;;;;;;;8.81;100.00;94186.72;5028904;28;20037;-59
2023/09/28 01:18:16;;;;;;;10.52;6.10;;;;;;;8.67;100.00;94187.56;5029256;28;20048;-59
2023/09/28 01:20:45;;;;;;;10.65;6.68;;;;;;;8.60;100.00;94190.31;5029291;28;20041;-59
2023/09/28 01:23:13;;;;;;;12.23;6.53;;;;;;;8.64;100.00;94190.31;5028963;28;20448;-59
2023/09/28 01:25:41;;;;;;;11.93;6.60;;;;;;;8.53;100.00;94187.59;5029820;28;20068;-59
2023/09/28 01:28:10;;;;;;;12.07;6.17;;;;;;;8.53;100.00;94188.41;5028847;28;20445;-59
2023/09/28 01:30:37;;;;;;;9.73;6.00;;;;;;;8.58;100.00;94184.47;5029350;28;20670;-58
2023/09/28 01:33:04;;;;;;;11.05;6.18;;;;;;;8.58;100.00;94189.94;5028859;28;20042;-59
2023/09/28 01:35:31;;;;;;;12.07;6.60;;;;;;;8.69;100.00;94187.94;5029803;28;20042;-59
2023/09/28 01:38:04;;;;;;;10.13;6.43;;;;;;;8.79;100.00;94194.53;5024112;28;20053;-58
2023/09/28 01:40:31;;;;;;;10.10;6.37;;;;;;;8.79;100.00;94181.66;5022773;28;20103;-59
2023/09/28 01:42:58;;;;;;;13.95;8.07;;;;;;;8.79;100.00;94187.13;5028937;28;20063;-58
2023/09/28 01:45:25;;;;;;;13.05;7.00;;;;;;;8.73;100.00;94190.66;5029643;28;20376;-59
2023/09/28 01:47:51;;;;;;;11.15;6.53;;;;;;;8.82;100.00;94182.03;5028985;28;20053;-59
2023/09/28 01:50:18;;;;;;;12.52;6.72;;;;;;;8.77;100.00;94183.22;5029419;28;20038;-59
2023/09/28 01:52:45;;;;;;;10.40;6.10;;;;;;;8.82;100.00;94187.50;5016652;28;20402;-59
2023/09/28 01:55:12;;;;;;;11.20;6.35;;;;;;;8.86;100.00;94188.28;5028435;28;21699;-59
2023/09/28 01:57:39;;;;;;;10.95;6.40;;;;;;;8.74;100.00;94192.22;5029198;28;20058;-59
2023/09/28 02:00:18;;;;;;;10.90;6.13;;;;;;;8.80;100.00;94185.94;5016202;28;20119;-59
2023/09/28 02:02:46;;;;;;;11.80;6.50;;;;;;;8.89;100.00;94179.25;5029499;28;20042;-59
2023/09/28 02:05:17;;;;;;;11.10;6.67;;;;;;;8.89;100.00;94179.25;5027386;28;20705;-59
2023/09/28 02:07:45;;;;;;;11.00;6.75;;;;;;;8.85;100.00;94186.69;5015926;28;20045;-59
2023/09/28 02:10:12;;;;;;;12.98;7.35;;;;;;;8.61;100.00;94183.66;5028417;28;21788;-59
2023/09/28 02:12:40;;;;;;;14.13;8.07;;;;;;;8.57;100.00;94182.88;5029077;28;20693;-59
2023/09/28 02:15:09;;;;;;;12.07;7.13;;;;;;;8.46;100.00;94180.19;5028726;28;20041;-59
2023/09/28 02:17:37;;;;;;;14.83;7.23;;;;;;;8.53;100.00;94180.19;5028948;28;20513;-58
2023/09/28 02:20:10;;;;;;;12.23;7.18;;;;;;;8.61;100.00;94175.44;5027220;28;20049;-59
2023/09/28 02:22:43;;;;;;;11.90;7.05;;;;;;;8.67;100.00;94181.28;5029239;28;20045;-59
2023/09/28 02:25:24;;;;;;;13.20;6.57;;;;;;;8.68;100.00;94180.13;5028905;28;20520;-58
2023/09/28 02:27:52;;;;;;;11.23;6.53;;;;;;;8.78;100.00;94180.09;5028222;28;20053;-58
2023/09/28 02:30:22;;;;;;;12.50;6.87;;;;;;;8.81;100.00;94170.28;5028948;28;20068;-59
2023/09/28 02:32:51;;;;;;;10.02;6.10;;;;;;;8.87;100.00;94184.34;5028547;28;20045;-58
2023/09/28 02:35:18;;;;;;;11.23;6.10;;;;;;;8.82;100.00;94188.28;5028615;28;20716;-58
2023/09/28 02:37:48;;;;;;;10.45;6.28;;;;;;;8.87;100.00;94185.13;5028912;28;20053;-58
2023/09/28 02:40:17;;;;;;;10.45;6.47;;;;;;;8.94;100.00;94187.06;5028055;28;20955;-58
2023/09/28 02:42:47;;;;;;;10.77;5.93;;;;;;;8.99;100.00;94184.69;5029756;28;20050;-58
2023/09/28 02:45:14;;;;;;;10.00;6.22;;;;;;;9.03;100.00;94184.66;5032039;28;20882;-59
2023/09/28 02:47:46;;;;;;;10.32;6.20;;;;;;;9.07;100.00;94182.69;5032755;28;20054;-59
2023/09/28 02:50:16;;;;;;;11.52;6.95;;;;;;;8.96;100.00;94187.44;5032029;28;20608;-59
2023/09/28 02:52:46;;;;;;;11.00;6.93;;;;;;;8.97;100.00;94184.31;5032991;28;20451;-58
2023/09/28 02:55:13;;;;;;;10.03;6.20;;;;;;;8.98;100.00;94194.06;5032040;28;20281;-58
2023/09/28 02:57:41;;;;;;;11.35;6.80;;;;;;;8.88;100.00;94188.66;5032423;28;20049;-58
2023/09/28 03:02:51;;;;;;;10.77;6.38;;;;;;;8.76;100.00;94187.13;5034082;28;20045;-58
2023/09/28 03:05:22;;;;;;;10.57;6.40;;;;;;;8.92;100.00;94181.22;5032499;28;20045;-58
2023/09/28 03:07:50;;;;;;;10.67;6.17;;;;;;;9.04;100.00;94178.00;5031683;28;20048;-58
2023/09/28 03:10:18;;;;;;;10.68;6.40;;;;;;;9.01;100.00;94192.47;5032572;28;20045;-59
2023/09/28 03:12:46;;;;;;;9.65;6.10;;;;;;;8.83;100.00;94194.53;5032186;28;20053;-58
2023/09/28 03:15:13;;;;;;;10.45;6.55;;;;;;;8.72;100.00;94187.16;5031692;28;20632;-58
2023/09/28 03:17:41;;;;;;;10.57;6.35;;;;;;;8.66;100.00;94196.16;5034801;28;20401;-58
2023/09/28 03:20:17;;;;;;;11.77;6.80;;;;;;;8.62;100.00;94201.66;5029103;28;20064;-58
2023/09/28 03:22:45;;;;;;;11.93;6.90;;;;;;;8.64;100.00;94196.56;5032084;28;20609;-58
2023/09/28 03:25:20;;;;;;;11.18;6.32;;;;;;;8.67;100.00;94208.66;5031333;28;20722;-59
2023/09/28 03:27:59;;;;;;;11.18;6.30;;;;;;;8.68;100.00;94212.97;5031472;28;20528;-58
2023/09/28 03:30:26;;;;;;;10.20;6.47;;;;;;;8.72;100.00;94205.53;5031829;28;20077;-59
2023/09/28 03:32:53;;;;;;;11.43;6.73;;;;;;;8.89;100.00;94204.66;5031473;28;20048;-59
2023/09/28 03:35:20;;;;;;;11.07;6.20;;;;;;;8.97;100.00;94200.75;5031782;28;20061;-59
2023/09/28 03:37:47;;;;;;;9.85;6.13;;;;;;;9.01;100.00;94203.44;5031263;28;20044;-58
2023/09/28 03:40:16;;;;;;;11.13;6.45;;;;;;;8.96;100.00;94206.59;5031984;28;20107;-59
2023/09/28 03:42:48;;;;;;;11.63;7.07;;;;;;;9.04;100.00;94201.88;5031789;28;20049;-59
2023/09/28 03:45:20;;;;;;;13.13;6.97;;;;;;;8.96;100.00;94201.13;5030874;28;20650;-59
2023/09/28 03:47:52;;;;;;;11.55;6.63;;;;;;;8.94;100.00;94189.81;5031017;28;20517;-59
2023/09/28 03:50:21;;;;;;;11.23;7.35;;;;;;;8.76;100.00;94198.84;5031713;28;20489;-59
2023/09/28 03:52:48;;;;;;;12.20;6.90;;;;;;;8.78;100.00;94209.41;5018399;28;20056;-58
2023/09/28 03:55:21;;;;;;;11.60;7.15;;;;;;;8.89;100.00;94204.66;5029540;28;20046;-59
2023/09/28 03:57:50;;;;;;;12.90;7.27;;;;;;;9.05;100.00;94208.91;5030767;28;20053;-58
2023/09/28 04:00:18;;;;;;;14.88;7.93;;;;;;;9.08;100.00;94214.38;5031590;28;20045;-59
2023/09/28 04:02:47;;;;;;;13.57;7.35;;;;;;;9.20;100.00;94218.63;5031391;28;20052;-59
2023/09/28 04:05:19;;;;;;;13.77;7.32;;;;;;;9.16;100.00;94229.56;5030539;28;20722;-59
2023/09/28 04:07:46;;;;;;;13.15;7.57;;;;;;;9.09;100.00;94229.59;5030832;28;20056;-58
2023/09/28 04:10:13;;;;;;;11.50;7.30;;;;;;;9.13;100.00;94224.13;5031356;28;20045;-59
2023/09/28 04:12:40;;;;;;;11.55;7.30;;;;;;;9.22;100.00;94226.44;5031354;28;20509;-59
2023/09/28 04:15:10;;;;;;;11.75;7.60;;;;;;;9.32;100.00;94228.34;5030978;28;20045;-59
2023/09/28 04:17:37;;;;;;;12.88;7.60;;;;;;;9.35;100.00;94227.53;5031168;28;20048;-59
2023/09/28 04:20:09;;;;;;;12.48;7.30;;;;;;;9.29;100.00;94226.38;5030835;28;20094;-58
2023/09/28 04:22:36;;;;;;;12.30;6.80;;;;;;;9.18;100.00;94220.97;5030880;28;20410;-59
2023/09/28 04:25:03;;;;;;;14.00;7.55;;;;;;;9.24;100.00;94227.59;5030433;28;20053;-59
2023/09/28 04:27:30;;;;;;;12.20;7.38;;;;;;;9.36;100.00;94227.13;5017508;28;20408;-59
2023/09/28 04:29:57;;;;;;;12.15;6.93;;;;;;;9.17;100.00;94235.81;5030482;28;20052;-59
2023/09/28 04:32:24;;;;;;;11.90;7.18;;;;;;;9.08;100.00;94221.81;5030709;28;20041;-59
2023/09/28 04:34:51;;;;;;;11.30;6.83;;;;;;;9.05;100.00;94217.88;5028219;28;20049;-59
2023/09/28 04:37:18;;;;;;;11.57;7.35;;;;;;;9.23;100.00;94217.81;5024151;28;20041;-59
2023/09/28 04:39:45;;;;;;;12.00;7.15;;;;;;;9.37;100.00;94219.69;5026407;28;20053;-59
2023/09/28 04:42:12;;;;;;;13.18;7.50;;;;;;;9.32;100.00;94222.84;5029397;28;20854;-59
2023/09/28 04:44:43;;;;;;;11.80;7.30;;;;;;;9.15;100.00;94224.50;5030204;28;20053;-59
2023/09/28 04:47:11;;;;;;;14.50;7.73;;;;;;;9.18;100.00;94224.47;5029543;28;20525;-60
2023/09/28 04:49:42;;;;;;;12.85;7.55;;;;;;;9.22;100.00;94227.22;5030423;28;20038;-60
2023/09/28 04:52:13;;;;;;;12.82;7.68;;;;;;;9.16;100.00;94235.06;5029818;28;20041;-60
2023/09/28 04:54:40;;;;;;;12.52;7.90;;;;;;;9.18;100.00;94231.94;5030080;28;20043;-60
2023/09/28 04:57:07;;;;;;;13.73;7.78;;;;;;;9.14;100.00;94228.44;5028408;28;20045;-60
2023/09/28 04:59:40;;;;;;;12.67;7.90;;;;;;;9.22;100.00;94229.94;5030077;28;20053;-60
2023/09/28 05:02:08;;;;;;;12.40;7.95;;;;;;;9.24;100.00;94224.06;5029076;28;20041;-60
2023/09/28 05:04:35;;;;;;;13.38;8.15;;;;;;;9.34;100.00;94223.25;5029636;28;20055;-60
2023/09/28 05:07:04;;;;;;;12.82;8.00;;;;;;;9.44;100.00;94216.13;5029109;28;20053;-60
2023/09/28 05:09:30;;;;;;;13.00;7.60;;;;;;;9.51;100.00;94208.63;5029836;28;20387;-60
2023/09/28 05:11:59;;;;;;;19.97;8.30;;;;;;;9.55;100.00;94206.66;5027523;28;20049;-57
2023/09/28 05:14:27;;;;;;;11.77;7.72;;;;;;;9.59;100.00;94209.38;5017434;28;20068;-60
2023/09/28 05:16:54;;;;;;;13.52;7.75;;;;;;;9.59;100.00;94212.88;5028351;28;20045;-60
2023/09/28 05:19:22;;;;;;;13.20;8.18;;;;;;;9.54;100.00;94213.31;5027775;28;20147;-60
2023/09/28 05:21:49;;;;;;;14.15;8.07;;;;;;;9.28;100.00;94233.06;5028891;28;20056;-60
2023/09/28 05:24:15;;;;;;;12.77;7.80;;;;;;;9.15;100.00;94235.44;5029698;28;20517;-60
2023/09/28 05:26:43;;;;;;;13.05;7.35;;;;;;;9.10;100.00;94249.56;5029431;28;20045;-60
2023/09/28 05:29:10;;;;;;;11.50;7.50;;;;;;;9.05;100.00;94256.22;5029308;28;20046;-60
2023/09/28 05:31:37;;;;;;;15.30;7.85;;;;;;;9.13;100.00;94257.75;5029688;28;20038;-60
2023/09/28 05:34:04;;;;;;;14.05;8.18;;;;;;;9.22;100.00;94265.53;5029129;28;20419;-60
2023/09/28 05:36:31;;;;;;;13.60;7.87;;;;;;;9.32;100.00;94264.72;5028232;28;20079;-60
2023/09/28 05:38:58;;;;;;;14.55;8.07;;;;;;;9.43;100.00;94263.88;5029138;28;20525;-60
2023/09/28 05:41:25;;;;;;;13.93;7.63;;;;;;;9.48;100.00;94272.47;5029586;28;20049;-60
2023/09/28 05:43:52;;;;;;;12.20;7.63;;;;;;;9.31;100.00;94282.31;5029078;28;20053;-60
2023/09/28 05:46:19;;;;;;;13.43;7.85;;;;;;;9.27;100.00;94276.06;5028409;28;20045;-60
2023/09/28 05:48:46;;;;;;;14.67;7.93;;;;;;;9.25;100.00;94274.91;5028812;28;20045;-57
2023/09/28 05:51:14;;;;;;;14.65;7.50;;;;;;;9.36;100.00;94276.44;5029519;28;20037;-58
2023/09/28 05:53:41;;;;;;;13.57;8.10;;;;;;;9.37;100.00;94280.72;5029444;28;20054;-59
2023/09/28 05:56:10;;;;;;;17.48;8.07;;;;;;;9.44;100.00;94273.63;5028081;28;20041;-58
2023/09/28 05:58:37;;;;;;;14.73;8.20;;;;;;;9.36;100.00;94276.44;5029251;28;20041;-59
2023/09/28 06:01:06;;;;;;;14.73;8.03;;;;;;;9.47;100.00;94276.38;5027453;28;20053;-59
2023/09/28 06:03:35;;;;;;;14.30;7.70;;;;;;;9.71;100.00;94279.38;5029404;28;20688;-59
2023/09/28 06:06:22;;;;;;;15.68;7.60;;;;;;;9.84;100.00;94277.72;5026714;28;20417;-59
2023/09/28 06:08:50;;;;;;;14.05;7.70;;;;;;;9.74;100.00;94275.84;5018215;28;20051;-58
2023/09/28 06:11:18;;;;;;;14.32;7.88;;;;;;;9.75;100.00;94272.69;5044205;28;20037;-58
2023/09/28 06:13:45;;;;;;;14.80;8.33;;;;;;;9.95;100.00;94270.19;5029097;28;20056;-59
2023/09/28 06:16:36;;;;;;;15.10;8.10;;;;;;;10.10;100.00;94270.88;5028515;28;20461;-59
2023/09/28 06:19:03;;;;;;;13.88;7.97;;;;;;;10.49;100.00;94282.75;5028314;28;20041;-59
2023/09/28 06:21:30;;;;;;;14.65;7.82;;;;;;;10.70;100.00;94273.50;5029058;28;20045;-59
2023/09/28 06:23:56;;;;;;;13.45;8.00;;;;;;;10.77;100.00;94267.97;5028642;28;20055;-59
2023/09/28 06:26:23;;;;;;;13.17;7.73;;;;;;;10.54;100.00;94266.63;5028943;28;20043;-59
2023/09/28 06:29:08;;;;;;;13.70;7.45;;;;;;;11.01;100.00;94263.38;5028554;28;20372;-59
2023/09/28 06:31:35;;;;;;;13.68;7.80;;;;;;;11.35;100.00;94260.63;5029056;28;20048;-59
2023/09/28 06:34:02;;;;;;;13.20;8.10;;;;;;;11.59;100.00;94266.22;5028437;28;20056;-59
2023/09/28 06:36:29;;;;;;;15.68;7.88;;;;;;;11.42;100.00;94272.72;5028834;28;20298;-59
2023/09/28 06:38:59;;;;;;;13.37;7.43;;;;;;;11.23;100.00;94268.63;5028364;28;20048;-58
2023/09/28 06:41:27;;;;;;;11.00;7.38;;;;;;;11.15;100.00;94276.97;5028901;28;20076;-59
2023/09/28 06:43:53;;;;;;;13.23;7.25;;;;;;;11.63;100.00;94279.88;5028427;28;20056;-58
2023/09/28 06:46:21;;;;;;;13.07;7.00;;;;;;;11.91;100.00;94274.03;5028702;28;20056;-58
2023/09/28 06:48:49;;;;;;;11.82;7.10;;;;;;;12.21;100.00;94282.63;5028084;28;20084;-59
2023/09/28 06:51:16;;;;;;;11.80;7.10;;;;;;;12.57;100.00;94277.31;5028664;28;20041;-60
2023/09/28 06:53:43;;;;;;;11.57;6.90;;;;;;;12.62;100.00;94276.06;5028637;28;20053;-59
2023/09/28 06:56:11;;;;;;;13.95;7.50;;;;;;;12.61;100.00;94275.28;5028126;28;20583;-59
2023/09/28 06:58:40;;;;;;;13.07;7.25;;;;;;;12.93;100.00;94273.94;5028626;28;20045;-59
2023/09/28 07:01:08;;;;;;;10.68;7.05;;;;;;;13.55;100.00;94266.03;5028387;28;20048;-59
2023/09/28 07:03:35;;;;;;;13.63;7.17;;;;;;;13.78;100.00;94262.38;5028766;28;20487;-59
2023/09/28 07:06:02;;;;;;;13.27;7.38;;;;;;;13.77;100.00;94272.66;5025667;28;20401;-59
2023/09/28 07:08:29;;;;;;;12.38;7.95;;;;;;;14.16;100.00;94287.53;5028508;28;20095;-59
2023/09/28 07:10:56;;;;;;;12.60;7.43;;;;;;;14.29;100.00;94287.66;5028156;28;20391;-59
2023/09/28 07:13:22;;;;;;;13.02;7.80;;;;;;;13.78;100.00;94290.78;5028529;28;20087;-59
2023/09/28 07:15:49;;;;;;;15.03;7.73;;;;;;;13.71;100.00;94292.91;5028180;28;20056;-59
2023/09/28 07:18:16;;;;;;;13.57;7.88;;;;;;;13.67;100.00;94301.25;5028219;28;20042;-59
2023/09/28 07:20:44;;;;;;;14.82;7.95;;;;;;;14.07;100.00;94303.94;5028685;28;20046;-59
2023/09/28 07:23:11;;;;;;;13.07;7.95;;;;;;;14.21;100.00;94296.53;5027513;28;20635;-59
2023/09/28 07:25:37;;;;;;;13.65;8.10;;;;;;;14.16;100.00;94289.53;5028685;28;20041;-59
2023/09/28 07:28:04;;;;;;;15.47;7.57;;;;;;;14.39;100.00;94300.44;5027843;28;20049;-59
2023/09/28 07:30:31;;;;;;;11.80;7.55;;;;;;;15.40;100.00;94308.94;5030586;28;20037;-59
2023/09/28 07:32:58;;;;;;;12.65;7.75;;;;;;;16.88;100.00;94302.56;5031129;28;20041;-60
2023/09/28 07:35:25;;;;;;;16.60;7.72;;;;;;;19.49;100.00;94299.38;5032066;28;20042;-60
2023/09/28 07:37:52;;;;;;;13.07;7.55;;;;;;;22.62;82.34;94298.78;5031265;28;20041;-60
2023/09/28 07:40:24;;;;;;;11.97;7.63;;;;;;;23.57;77.50;94302.09;5031837;28;20106;-60
2023/09/28 07:43:10;;;;;;;12.18;7.13;;;;;;;24.72;66.68;94297.88;5031420;28;20037;-60
2023/09/28 07:45:37;;;;;;;12.32;7.07;;;;;;;25.59;59.89;94299.41;5031194;28;20051;-61
2023/09/28 07:48:05;;;;;;;10.27;7.43;;;;;;;24.12;64.17;94295.56;5031143;28;20080;-60
2023/09/28 07:50:32;;;;;;;11.43;7.10;;;;;;;24.96;64.87;94303.16;5031483;28;20063;-60
2023/09/28 07:52:59;;;;;;;11.23;6.67;;;;;;;25.39;61.70;94289.09;5031165;28;20056;-60
2023/09/28 07:55:26;;;;;;;11.50;7.00;;;;;;;27.82;51.68;94295.50;5030538;28;20037;-61
2023/09/28 07:57:53;;;;;;;10.00;6.43;;;;;;;28.60;49.60;94282.22;5030462;28;20045;-61
2023/09/28 08:00:37;;;;;;;11.02;7.20;;;;;;;27.48;49.34;94290.00;5031493;28;20502;-60
2023/09/28 08:03:05;;;;;;;10.32;6.93;;;;;;;24.68;57.59;94305.75;5031014;28;20049;-60
2023/09/28 08:05:32;;;;;;;9.80;6.87;;;;;;;25.36;57.29;94297.78;5030132;28;20266;-60
2023/09/28 08:07:59;;;;;;;11.07;7.30;;;;;;;25.97;54.50;94302.09;5045670;28;20520;-61
2023/09/28 08:10:42;;;;;;;10.70;7.50;;;;;;;26.30;53.31;94287.34;5024081;28;20457;-61
2023/09/28 08:13:09;;;;;;;12.45;7.05;;;;;;;27.74;51.53;94293.75;5025374;28;20048;-61
2023/09/28 08:15:39;;;;;;;9.90;7.25;;;;;;;28.70;47.02;94285.50;5030954;28;20048;-61
2023/09/28 08:18:06;;;;;;;10.13;6.67;;;;;;;27.81;49.71;94284.75;5030956;28;20049;-61
2023/09/28 08:20:33;;;;;;;10.52;6.80;;;;;;;30.34;45.15;94289.31;5030986;28;20590;-61
2023/09/28 08:23:02;;;;;;;11.20;7.03;;;;;;;32.48;39.42;94298.72;5030580;28;20500;-61
2023/09/28 08:25:31;;;;;;;10.85;6.93;;;;;;;31.22;40.57;94284.78;5031013;28;20046;-61
2023/09/28 08:27:58;;;;;;;10.40;6.90;;;;;;;30.62;41.14;94280.38;5030053;28;20041;-61
2023/09/28 08:30:25;;;;;;;10.80;7.03;;;;;;;30.64;42.44;94286.25;5030776;28;20045;-61
2023/09/28 08:32:53;;;;;;;10.38;6.93;;;;;;;32.71;37.51;94282.69;5028877;28;20128;-61
2023/09/28 08:35:20;;;;;;;9.15;6.60;;;;;;;34.39;35.53;94284.34;5030814;28;20087;-61
2023/09/28 08:37:48;;;;;;;11.65;6.25;;;;;;;33.90;35.32;94293.81;5017582;28;20045;-61
2023/09/28 08:40:14;;;;;;;10.52;6.53;;;;;;;34.03;33.90;94291.63;5030404;28;20041;-61
2023/09/28 08:42:44;;;;;;;12.90;6.70;;;;;;;32.11;36.55;94292.81;5030769;28;20107;-62
2023/09/28 08:45:15;;;;;;;10.15;6.70;;;;;;;33.26;34.70;94286.78;5017566;28;20911;-62
2023/09/28 08:47:48;;;;;;;10.93;6.10;;;;;;;34.42;34.30;94275.44;5030338;28;20387;-59
2023/09/28 08:50:26;;;;;;;9.07;5.82;;;;;;;35.95;31.53;94276.00;5029418;28;20273;-59
2023/09/28 08:52:54;;;;;;;9.73;6.05;;;;;;;34.22;32.63;94279.94;5030027;28;20463;-59
2023/09/28 08:55:22;;;;;;;8.73;5.73;;;;;;;33.11;35.45;94287.44;5030419;28;20052;-60
2023/09/28 08:57:50;;;;;;;9.48;6.00;;;;;;;34.37;33.20;94282.06;5029370;28;20045;-59
2023/09/28 09:00:22;;;;;;;9.07;5.65;;;;;;;33.57;33.66;94284.91;5030071;28;20045;-59
2023/09/28 09:02:51;;;;;;;10.75;6.28;;;;;;;32.58;35.15;94294.91;5029785;28;20033;-60
2023/09/28 09:05:20;;;;;;;8.20;6.05;;;;;;;32.03;37.08;94294.81;5030230;28;20048;-60
2023/09/28 09:07:49;;;;;;;7.40;5.50;;;;;;;33.81;34.66;94290.19;5029640;28;20434;-59
2023/09/28 09:10:19;;;;;;;9.63;6.00;;;;;;;34.23;34.02;94297.81;5030159;28;20073;-60
2023/09/28 09:12:45;;;;;;;8.40;5.60;;;;;;;34.71;34.06;94289.59;5027126;28;20045;-55
2023/09/28 09:15:13;;;;;;;9.05;5.30;;;;;;;35.30;33.90;94280.13;5019226;28;20054;-60
2023/09/28 09:17:40;;;;;;;9.05;5.50;;;;;;;35.99;32.21;94279.97;5028988;28;20524;-59
2023/09/28 09:20:08;;;;;;;8.73;5.53;;;;;;;36.27;33.00;94283.91;5029515;28;20041;-60
2023/09/28 09:22:37;;;;;;;6.70;5.10;;;;;;;36.87;30.63;94278.41;5030073;28;20044;-60
2023/09/28 09:25:24;;;;;;;7.60;5.13;;;;;;;37.20;29.62;94274.75;5028993;28;20213;-60
2023/09/28 09:27:51;;;;;;;9.20;4.93;;;;;;;38.45;28.47;94276.50;5029434;28;20110;-60
2023/09/28 09:30:18;;;;;;;7.95;4.43;;;;;;;36.40;29.21;94277.16;5028354;28;20056;-60
2023/09/28 09:32:47;;;;;;;6.43;4.50;;;;;;;36.87;27.92;94269.84;5015394;28;20353;-60
2023/09/28 09:35:13;;;;;;;8.63;4.90;;;;;;;35.61;29.67;94265.78;5028657;28;20862;-60
2023/09/28 09:37:43;;;;;;;5.80;4.40;;;;;;;35.22;29.48;94272.91;5029597;28;20407;-59
2023/09/28 09:40:12;;;;;;;8.85;4.47;;;;;;;33.78;31.54;94271.38;5028749;28;20052;-60
2023/09/28 09:42:41;;;;;;;6.65;4.03;;;;;;;35.41;29.33;94268.28;5029517;28;20705;-60
2023/09/28 09:45:11;;;;;;;9.50;3.80;;;;;;;36.44;27.95;94263.22;5028918;28;20046;-60
2023/09/28 09:47:47;;;;;;;5.60;3.30;;;;;;;35.39;27.00;94264.50;5029552;28;20102;-60
2023/09/28 09:50:16;;;;;;;5.05;3.25;;;;;;;35.23;28.39;94263.00;5028675;28;20864;-60
2023/09/28 09:52:47;;;;;;;5.32;3.30;;;;;;;35.77;27.90;94258.72;5028732;28;20041;-60
2023/09/28 09:55:14;;;;;;;5.28;3.00;;;;;;;38.55;25.05;94258.00;5028640;28;20619;-60
2023/09/28 09:57:42;;;;;;;5.00;2.90;;;;;;;39.58;23.15;94263.09;5028910;28;20049;-61
2023/09/28 10:00:15;;;;;;;3.83;2.50;;;;;;;39.08;22.27;94266.44;5028913;28;20532;-61
2023/09/28 10:02:45;;;;;;;3.38;2.15;;;;;;;38.19;20.18;94263.66;5029375;28;20045;-60
2023/09/28 10:05:15;;;;;;;3.75;2.10;;;;;;;39.29;19.19;94266.66;5026964;28;20422;-60
2023/09/28 10:07:43;;;;;;;3.67;1.90;;;;;;;41.07;17.92;94261.78;5029100;28;20041;-60
2023/09/28 10:10:18;;;;;;;4.50;2.53;;;;;;;39.61;19.34;94261.16;5027989;28;20429;-61
2023/09/28 10:12:49;;;;;;;4.20;1.90;;;;;;;37.05;20.01;94259.22;5026874;28;20059;-59
2023/09/28 10:15:17;;;;;;;3.70;2.08;;;;;;;36.17;20.78;94255.16;5029247;28;20474;-60
2023/09/28 10:17:46;;;;;;;3.58;2.00;;;;;;;38.28;18.92;94243.66;5029094;28;20046;-60
2023/09/28 10:20:14;;;;;;;3.85;1.90;;;;;;;40.78;17.79;94247.50;5015534;28;20279;-62
2023/09/28 10:22:44;;;;;;;3.80;2.07;;;;;;;40.40;18.38;94249.06;5029143;28;20413;-61
2023/09/28 10:25:15;;;;;;;3.78;2.00;;;;;;;35.91;21.03;94244.22;5028785;28;20048;-61
2023/09/28 10:27:47;;;;;;;2.90;1.67;;;;;;;37.72;18.81;94246.97;5028925;28;20033;-61
2023/09/28 10:30:22;;;;;;;3.60;1.70;;;;;;;39.09;18.29;94247.88;5027957;28;20751;-62
2023/09/28 10:32:54;;;;;;;2.55;1.50;;;;;;;40.36;16.67;94239.41;5028466;28;20045;-61
2023/09/28 10:35:29;;;;;;;2.80;1.67;;;;;;;42.23;16.19;94239.34;5029393;28;20033;-61
2023/09/28 10:38:22;;;;;;;3.40;1.80;;;;;;;41.51;16.95;94239.56;5028371;28;20046;-61
2023/09/28 10:41:00;;;;;;;3.47;2.00;;;;;;;39.28;18.19;94227.06;5028430;28;20249;-61
2023/09/28 10:43:42;;;;;;;3.95;1.88;;;;;;;36.76;19.90;94235.97;5028981;28;20067;-61
2023/09/28 10:46:09;;;;;;;3.05;1.88;;;;;;;35.84;21.31;94236.44;5028344;28;20451;-61
2023/09/28 10:48:44;;;;;;;3.40;2.20;;;;;;;36.70;21.03;94233.34;5029036;28;20055;-61
2023/09/28 10:51:12;;;;;;;4.63;2.25;;;;;;;35.72;22.73;94234.00;5027879;28;20399;-62
2023/09/28 10:53:40;;;;;;;4.75;2.22;;;;;;;37.44;20.88;94238.84;5028916;28;20042;-61
2023/09/28 10:56:06;;;;;;;3.88;2.20;;;;;;;36.05;21.37;94236.91;5028301;28;20049;-61
2023/09/28 10:58:38;;;;;;;3.30;2.00;;;;;;;33.84;23.76;94234.19;5028588;28;20049;-61
2023/09/28 11:01:06;;;;;;;3.53;1.70;;;;;;;35.43;21.40;94244.91;5028265;28;20053;-61
2023/09/28 11:03:34;;;;;;;2.63;1.40;;;;;;;35.20;19.57;94242.84;5029617;28;20060;-61
2023/09/28 11:06:03;;;;;;;3.15;1.58;;;;;;;33.02;21.95;94238.25;5031771;28;20107;-61
2023/09/28 11:08:31;;;;;;;3.75;1.60;;;;;;;34.45;20.51;94241.44;5032311;28;20501;-61
2023/09/28 11:11:01;;;;;;;3.92;1.73;;;;;;;36.01;20.87;94239.41;5031611;28;20140;-61
2023/09/28 11:13:29;;;;;;;3.53;1.90;;;;;;;35.42;20.93;94234.81;5030755;28;20098;-62
2023/09/28 11:15:57;;;;;;;3.03;1.60;;;;;;;35.07;20.53;94243.00;5031847;28;20048;-61
2023/09/28 11:18:26;;;;;;;2.97;1.58;;;;;;;32.28;22.73;94230.00;5031707;28;20042;-61
2023/09/28 11:20:58;;;;;;;2.85;1.30;;;;;;;32.79;21.39;94229.53;5031202;28;20375;-61
2023/09/28 11:23:25;;;;;;;3.95;1.80;;;;;;;35.91;21.04;94218.50;5031576;28;20033;-61
2023/09/28 11:25:53;;;;;;;3.53;2.30;;;;;;;35.28;22.73;94222.88;5031158;28;20106;-61
2023/09/28 11:28:22;;;;;;;5.00;1.95;;;;;;;35.17;21.97;94217.53;5031712;28;20038;-60
2023/09/28 11:31:09;;;;;;;4.50;2.60;;;;;;;33.10;26.02;94218.44;5030913;28;20049;-61
2023/09/28 11:33:36;;;;;;;5.05;3.00;;;;;;;31.20;28.81;94225.78;5031546;28;20091;-60
2023/09/28 11:36:04;;;;;;;5.72;3.30;;;;;;;29.92;32.25;94218.09;5030351;28;20045;-60
2023/09/28 11:38:31;;;;;;;5.57;3.20;;;;;;;29.06;33.18;94212.72;5031489;28;20049;-60